sensor_id;sensor_type;location;lat;lon;timestamp;P1;durP1;ratioP1;P2;durP2;ratioP2
17504;SDS011;8870;50.950;11.762;2024-03-23T00:55:23;13.52;;;12.18;;
17504;SDS011;8870;50.950;11.762;2024-03-23T01:00:51;14.90;;;12.87;;
17504;SDS011;8870;50.950;11.762;2024-03-23T01:06:05;16.70;;;13.23;;
17504;SDS011;8870;50.950;11.762;2024-03-23T01:11:36;17.55;;;13.55;;
17504;SDS011;8870;50.950;11.762;2024-03-23T01:16:50;17.17;;;15.23;;
17504;SDS011;8870;50.950;11.762;2024-03-23T01:22:18;16.80;;;14.67;;
17504;SDS011;8870;50.950;11.762;2024-03-23T01:27:35;16.92;;;15.07;;
17504;SDS011;8870;50.950;11.762;2024-03-23T01:33:03;17.80;;;14.75;;
17504;SDS011;8870;50.950;11.762;2024-03-23T01:38:18;16.67;;;14.05;;
17504;SDS011;8870;50.950;11.762;2024-03-23T01:43:49;13.97;;;12.50;;
17504;SDS011;8870;50.950;11.762;2024-03-23T01:49:04;16.98;;;14.23;;
17504;SDS011;8870;50.950;11.762;2024-03-23T01:54:32;19.42;;;15.73;;
17504;SDS011;8870;50.950;11.762;2024-03-23T02:00:05;18.38;;;15.77;;
17504;SDS011;8870;50.950;11.762;2024-03-23T02:05:20;18.40;;;15.60;;
17504;SDS011;8870;50.950;11.762;2024-03-23T02:10:49;18.02;;;16.13;;
17504;SDS011;8870;50.950;11.762;2024-03-23T02:16:07;19.45;;;15.70;;
17504;SDS011;8870;50.950;11.762;2024-03-23T02:21:35;19.63;;;16.52;;
17504;SDS011;8870;50.950;11.762;2024-03-23T02:26:52;26.13;;;20.70;;
17504;SDS011;8870;50.950;11.762;2024-03-23T02:32:20;29.60;;;24.02;;
17504;SDS011;8870;50.950;11.762;2024-03-23T02:37:35;34.28;;;25.52;;
17504;SDS011;8870;50.950;11.762;2024-03-23T02:43:06;34.53;;;25.58;;
17504;SDS011;8870;50.950;11.762;2024-03-23T02:48:20;36.90;;;26.80;;
17504;SDS011;8870;50.950;11.762;2024-03-23T02:53:48;38.08;;;27.05;;
17504;SDS011;8870;50.950;11.762;2024-03-23T02:59:19;33.88;;;24.92;;
17504;SDS011;8870;50.950;11.762;2024-03-23T03:04:33;34.40;;;24.63;;
17504;SDS011;8870;50.950;11.762;2024-03-23T03:10:02;33.10;;;24.47;;
17504;SDS011;8870;50.950;11.762;2024-03-23T03:15:20;37.92;;;26.77;;
17504;SDS011;8870;50.950;11.762;2024-03-23T03:20:48;35.63;;;24.60;;
17504;SDS011;8870;50.950;11.762;2024-03-23T03:26:03;31.23;;;22.15;;
17504;SDS011;8870;50.950;11.762;2024-03-23T03:31:34;30.38;;;21.67;;
17504;SDS011;8870;50.950;11.762;2024-03-23T03:36:49;29.70;;;20.85;;
17504;SDS011;8870;50.950;11.762;2024-03-23T03:42:16;25.20;;;17.57;;
17504;SDS011;8870;50.950;11.762;2024-03-23T03:47:34;23.10;;;15.20;;
17504;SDS011;8870;50.950;11.762;2024-03-23T03:53:02;16.92;;;12.50;;
17504;SDS011;8870;50.950;11.762;2024-03-23T03:58:17;23.77;;;13.27;;
17504;SDS011;8870;50.950;11.762;2024-03-23T04:03:48;33.88;;;15.88;;
17504;SDS011;8870;50.950;11.762;2024-03-23T04:09:03;42.20;;;18.98;;
17504;SDS011;8870;50.950;11.762;2024-03-23T04:14:31;49.40;;;21.98;;
17504;SDS011;8870;50.950;11.762;2024-03-23T04:19:48;45.35;;;22.23;;
17504;SDS011;8870;50.950;11.762;2024-03-23T04:25:16;42.53;;;21.33;;
17504;SDS011;8870;50.950;11.762;2024-03-23T04:30:31;44.35;;;21.05;;
17504;SDS011;8870;50.950;11.762;2024-03-23T04:36:02;37.25;;;19.08;;
17504;SDS011;8870;50.950;11.762;2024-03-23T04:41:18;35.40;;;18.95;;
17504;SDS011;8870;50.950;11.762;2024-03-23T04:46:46;34.70;;;19.05;;
17504;SDS011;8870;50.950;11.762;2024-03-23T04:52:03;41.92;;;22.55;;
17504;SDS011;8870;50.950;11.762;2024-03-23T04:57:32;42.50;;;23.08;;
17504;SDS011;8870;50.950;11.762;2024-03-23T05:02:46;40.08;;;21.25;;
17504;SDS011;8870;50.950;11.762;2024-03-23T05:08:17;36.25;;;20.90;;
17504;SDS011;8870;50.950;11.762;2024-03-23T05:13:31;42.65;;;20.33;;
17504;SDS011;8870;50.950;11.762;2024-03-23T05:18:59;46.95;;;20.25;;
17504;SDS011;8870;50.950;11.762;2024-03-23T05:24:17;40.88;;;19.65;;
17504;SDS011;8870;50.950;11.762;2024-03-23T05:29:45;42.95;;;19.80;;
17504;SDS011;8870;50.950;11.762;2024-03-23T05:35:01;39.05;;;19.00;;
17504;SDS011;8870;50.950;11.762;2024-03-23T05:40:32;40.60;;;18.45;;
17504;SDS011;8870;50.950;11.762;2024-03-23T05:45:52;53.15;;;19.52;;
17504;SDS011;8870;50.950;11.762;2024-03-23T05:51:20;47.58;;;18.85;;
17504;SDS011;8870;50.950;11.762;2024-03-23T05:56:37;53.58;;;19.77;;
17504;SDS011;8870;50.950;11.762;2024-03-23T06:02:06;61.78;;;21.60;;
17504;SDS011;8870;50.950;11.762;2024-03-23T06:07:33;50.70;;;23.88;;
17504;SDS011;8870;50.950;11.762;2024-03-23T06:12:50;53.58;;;24.42;;
17504;SDS011;8870;50.950;11.762;2024-03-23T06:18:18;75.00;;;25.17;;
17504;SDS011;8870;50.950;11.762;2024-03-23T06:23:33;59.22;;;26.88;;
17504;SDS011;8870;50.950;11.762;2024-03-23T06:29:03;60.30;;;27.67;;
17504;SDS011;8870;50.950;11.762;2024-03-23T06:34:19;58.00;;;27.77;;
17504;SDS011;8870;50.950;11.762;2024-03-23T06:39:46;63.50;;;27.47;;
17504;SDS011;8870;50.950;11.762;2024-03-23T06:45:05;47.10;;;25.75;;
17504;SDS011;8870;50.950;11.762;2024-03-23T06:50:33;53.05;;;26.58;;
17504;SDS011;8870;50.950;11.762;2024-03-23T06:55:55;45.58;;;25.92;;
17504;SDS011;8870;50.950;11.762;2024-03-23T07:01:26;42.85;;;25.50;;
17504;SDS011;8870;50.950;11.762;2024-03-23T07:06:44;36.83;;;23.83;;
17504;SDS011;8870;50.950;11.762;2024-03-23T07:12:11;35.78;;;22.95;;
17504;SDS011;8870;50.950;11.762;2024-03-23T07:17:28;29.60;;;21.08;;
17504;SDS011;8870;50.950;11.762;2024-03-23T07:22:56;31.33;;;21.35;;
17504;SDS011;8870;50.950;11.762;2024-03-23T07:28:11;36.17;;;22.17;;
17504;SDS011;8870;50.950;11.762;2024-03-23T07:33:44;11.05;;;5.50;;
17504;SDS011;8870;50.950;11.762;2024-03-23T07:39:02;6.28;;;3.65;;
17504;SDS011;8870;50.950;11.762;2024-03-23T07:44:30;3.55;;;2.05;;
17504;SDS011;8870;50.950;11.762;2024-03-23T07:49:47;3.20;;;1.80;;
17504;SDS011;8870;50.950;11.762;2024-03-23T07:55:15;1.48;;;1.30;;
17504;SDS011;8870;50.950;11.762;2024-03-23T08:00:30;1.30;;;1.20;;
17504;SDS011;8870;50.950;11.762;2024-03-23T08:06:00;1.60;;;1.27;;
17504;SDS011;8870;50.950;11.762;2024-03-23T08:11:21;1.90;;;1.17;;
17504;SDS011;8870;50.950;11.762;2024-03-23T08:16:48;2.90;;;1.10;;
17504;SDS011;8870;50.950;11.762;2024-03-23T08:22:05;0.98;;;0.60;;
17504;SDS011;8870;50.950;11.762;2024-03-23T08:27:33;1.08;;;0.75;;
17504;SDS011;8870;50.950;11.762;2024-03-23T08:32:55;0.63;;;0.63;;
17504;SDS011;8870;50.950;11.762;2024-03-23T08:38:26;0.70;;;0.68;;
17504;SDS011;8870;50.950;11.762;2024-03-23T08:43:42;1.55;;;1.00;;
17504;SDS011;8870;50.950;11.762;2024-03-23T08:49:10;0.80;;;0.80;;
17504;SDS011;8870;50.950;11.762;2024-03-23T08:54:28;0.47;;;0.47;;
17504;SDS011;8870;50.950;11.762;2024-03-23T08:59:56;0.50;;;0.50;;
17504;SDS011;8870;50.950;11.762;2024-03-23T09:05:11;0.60;;;0.60;;
17504;SDS011;8870;50.950;11.762;2024-03-23T09:10:41;0.40;;;0.40;;
17504;SDS011;8870;50.950;11.762;2024-03-23T09:15:57;0.60;;;0.60;;
17504;SDS011;8870;50.950;11.762;2024-03-23T09:21:24;0.55;;;0.55;;
17504;SDS011;8870;50.950;11.762;2024-03-23T09:26:41;0.50;;;0.30;;
17504;SDS011;8870;50.950;11.762;2024-03-23T09:32:09;0.50;;;0.43;;
17504;SDS011;8870;50.950;11.762;2024-03-23T09:37:24;0.40;;;0.40;;
17504;SDS011;8870;50.950;11.762;2024-03-23T09:42:54;0.43;;;0.20;;
17504;SDS011;8870;50.950;11.762;2024-03-23T09:48:09;0.30;;;0.30;;
17504;SDS011;8870;50.950;11.762;2024-03-23T09:53:38;0.50;;;0.50;;
17504;SDS011;8870;50.950;11.762;2024-03-23T09:59:02;0.40;;;0.40;;
17504;SDS011;8870;50.950;11.762;2024-03-23T10:04:37;0.57;;;0.57;;
17504;SDS011;8870;50.950;11.762;2024-03-23T10:09:52;1.63;;;0.50;;
17504;SDS011;8870;50.950;11.762;2024-03-23T10:15:23;0.60;;;0.60;;
17504;SDS011;8870;50.950;11.762;2024-03-23T10:20:39;1.20;;;0.90;;
17504;SDS011;8870;50.950;11.762;2024-03-23T10:26:13;1.10;;;0.70;;
17504;SDS011;8870;50.950;11.762;2024-03-23T10:31:39;1.75;;;1.00;;
17504;SDS011;8870;50.950;11.762;2024-03-23T10:37:08;2.25;;;1.00;;
17504;SDS011;8870;50.950;11.762;2024-03-23T10:42:23;2.13;;;0.90;;
17504;SDS011;8870;50.950;11.762;2024-03-23T10:47:53;4.97;;;1.38;;
17504;SDS011;8870;50.950;11.762;2024-03-23T10:53:08;3.70;;;0.95;;
17504;SDS011;8870;50.950;11.762;2024-03-23T10:58:37;3.13;;;1.30;;
17504;SDS011;8870;50.950;11.762;2024-03-23T11:03:55;1.90;;;0.90;;
17504;SDS011;8870;50.950;11.762;2024-03-23T11:14:54;2.72;;;1.00;;
17504;SDS011;8870;50.950;11.762;2024-03-23T11:20:32;3.92;;;1.05;;
17504;SDS011;8870;50.950;11.762;2024-03-23T11:25:47;3.00;;;1.23;;
17504;SDS011;8870;50.950;11.762;2024-03-23T11:31:14;5.15;;;1.65;;
17504;SDS011;8870;50.950;11.762;2024-03-23T11:36:32;4.32;;;1.30;;
17504;SDS011;8870;50.950;11.762;2024-03-23T11:42:00;4.75;;;1.77;;
17504;SDS011;8870;50.950;11.762;2024-03-23T11:47:15;6.65;;;2.17;;
17504;SDS011;8870;50.950;11.762;2024-03-23T11:52:46;6.10;;;1.92;;
17504;SDS011;8870;50.950;11.762;2024-03-23T11:58:01;4.45;;;1.55;;
17504;SDS011;8870;50.950;11.762;2024-03-23T12:03:29;5.53;;;1.80;;
17504;SDS011;8870;50.950;11.762;2024-03-23T12:08:48;19.83;;;15.57;;
17504;SDS011;8870;50.950;11.762;2024-03-23T12:14:16;5.75;;;1.83;;
17504;SDS011;8870;50.950;11.762;2024-03-23T12:19:31;6.53;;;2.00;;
17504;SDS011;8870;50.950;11.762;2024-03-23T12:25:01;5.30;;;1.90;;
17504;SDS011;8870;50.950;11.762;2024-03-23T12:30:22;6.22;;;1.90;;
17504;SDS011;8870;50.950;11.762;2024-03-23T12:35:51;10.85;;;2.08;;
17504;SDS011;8870;50.950;11.762;2024-03-23T12:41:08;11.75;;;2.53;;
17504;SDS011;8870;50.950;11.762;2024-03-23T12:46:38;5.30;;;2.22;;
17504;SDS011;8870;50.950;11.762;2024-03-23T12:51:55;6.07;;;2.72;;
17504;SDS011;8870;50.950;11.762;2024-03-23T12:57:26;6.07;;;2.40;;
17504;SDS011;8870;50.950;11.762;2024-03-23T13:02:41;8.02;;;2.97;;
17504;SDS011;8870;50.950;11.762;2024-03-23T13:08:09;3.90;;;2.13;;
17504;SDS011;8870;50.950;11.762;2024-03-23T13:13:25;113.13;;;70.65;;
17504;SDS011;8870;50.950;11.762;2024-03-23T13:18:53;37.47;;;29.40;;
17504;SDS011;8870;50.950;11.762;2024-03-23T13:24:08;5.15;;;2.63;;
17504;SDS011;8870;50.950;11.762;2024-03-23T13:29:39;5.45;;;3.40;;
17504;SDS011;8870;50.950;11.762;2024-03-23T13:34:54;4.35;;;2.55;;
17504;SDS011;8870;50.950;11.762;2024-03-23T13:40:22;3.78;;;1.60;;
17504;SDS011;8870;50.950;11.762;2024-03-23T13:45:38;2.88;;;1.50;;
17504;SDS011;8870;50.950;11.762;2024-03-23T13:51:07;4.07;;;1.52;;
17504;SDS011;8870;50.950;11.762;2024-03-23T13:56:21;2.83;;;1.40;;
17504;SDS011;8870;50.950;11.762;2024-03-23T14:01:51;2.55;;;1.40;;
17504;SDS011;8870;50.950;11.762;2024-03-23T14:07:06;2.28;;;1.48;;
17504;SDS011;8870;50.950;11.762;2024-03-23T14:12:34;5.17;;;1.33;;
17504;SDS011;8870;50.950;11.762;2024-03-23T14:17:51;3.22;;;1.30;;
17504;SDS011;8870;50.950;11.762;2024-03-23T14:23:20;3.40;;;1.10;;
17504;SDS011;8870;50.950;11.762;2024-03-23T14:28:34;2.97;;;1.17;;
17504;SDS011;8870;50.950;11.762;2024-03-23T14:34:04;3.70;;;1.08;;
17504;SDS011;8870;50.950;11.762;2024-03-23T14:39:22;1.60;;;0.90;;
17504;SDS011;8870;50.950;11.762;2024-03-23T14:44:51;3.08;;;1.10;;
17504;SDS011;8870;50.950;11.762;2024-03-23T14:50:09;2.60;;;1.20;;
17504;SDS011;8870;50.950;11.762;2024-03-23T14:55:37;8.45;;;1.55;;
17504;SDS011;8870;50.950;11.762;2024-03-23T15:00:51;5.00;;;1.85;;
17504;SDS011;8870;50.950;11.762;2024-03-23T15:06:21;3.20;;;1.60;;
17504;SDS011;8870;50.950;11.762;2024-03-23T15:11:36;3.13;;;1.90;;
17504;SDS011;8870;50.950;11.762;2024-03-23T15:17:04;3.15;;;1.30;;
17504;SDS011;8870;50.950;11.762;2024-03-23T15:22:20;2.03;;;1.50;;
17504;SDS011;8870;50.950;11.762;2024-03-23T15:27:50;2.50;;;1.48;;
17504;SDS011;8870;50.950;11.762;2024-03-23T15:33:11;2.33;;;1.10;;
17504;SDS011;8870;50.950;11.762;2024-03-23T15:38:41;4.55;;;1.40;;
17504;SDS011;8870;50.950;11.762;2024-03-23T15:43:57;2.60;;;0.93;;
17504;SDS011;8870;50.950;11.762;2024-03-23T15:49:25;3.17;;;1.67;;
17504;SDS011;8870;50.950;11.762;2024-03-23T15:54:45;2.42;;;1.10;;
17504;SDS011;8870;50.950;11.762;2024-03-23T16:00:14;1.90;;;0.93;;
17504;SDS011;8870;50.950;11.762;2024-03-23T16:05:29;2.97;;;1.33;;
17504;SDS011;8870;50.950;11.762;2024-03-23T16:11:02;2.95;;;1.10;;
17504;SDS011;8870;50.950;11.762;2024-03-23T16:16:18;2.63;;;1.17;;
17504;SDS011;8870;50.950;11.762;2024-03-23T16:21:46;3.60;;;1.25;;
17504;SDS011;8870;50.950;11.762;2024-03-23T16:27:03;2.67;;;1.50;;
17504;SDS011;8870;50.950;11.762;2024-03-23T16:32:32;1.90;;;1.08;;
17504;SDS011;8870;50.950;11.762;2024-03-23T16:38:00;1.85;;;0.90;;
17504;SDS011;8870;50.950;11.762;2024-03-23T16:43:30;1.40;;;0.70;;
17504;SDS011;8870;50.950;11.762;2024-03-23T16:48:45;1.63;;;0.90;;
17504;SDS011;8870;50.950;11.762;2024-03-23T16:54:13;1.58;;;0.82;;
17504;SDS011;8870;50.950;11.762;2024-03-23T16:59:30;1.70;;;0.90;;
17504;SDS011;8870;50.950;11.762;2024-03-23T17:04:59;1.83;;;0.90;;
17504;SDS011;8870;50.950;11.762;2024-03-23T17:10:13;2.35;;;1.80;;
17504;SDS011;8870;50.950;11.762;2024-03-23T17:15:46;2.72;;;1.17;;
17504;SDS011;8870;50.950;11.762;2024-03-23T17:21:01;2.88;;;2.13;;
17504;SDS011;8870;50.950;11.762;2024-03-23T17:26:29;1.70;;;1.10;;
17504;SDS011;8870;50.950;11.762;2024-03-23T17:31:52;2.17;;;0.88;;
17504;SDS011;8870;50.950;11.762;2024-03-23T17:37:21;2.13;;;1.02;;
17504;SDS011;8870;50.950;11.762;2024-03-23T17:42:36;2.75;;;1.10;;
17504;SDS011;8870;50.950;11.762;2024-03-23T17:48:09;1.58;;;0.77;;
17504;SDS011;8870;50.950;11.762;2024-03-23T17:53:23;2.03;;;0.95;;
17504;SDS011;8870;50.950;11.762;2024-03-23T17:58:51;2.20;;;1.35;;
17504;SDS011;8870;50.950;11.762;2024-03-23T18:04:09;2.50;;;1.70;;
17504;SDS011;8870;50.950;11.762;2024-03-23T18:09:37;6.53;;;5.10;;
17504;SDS011;8870;50.950;11.762;2024-03-23T18:14:51;1.33;;;1.00;;
17504;SDS011;8870;50.950;11.762;2024-03-23T18:20:21;2.97;;;0.98;;
17504;SDS011;8870;50.950;11.762;2024-03-23T18:25:36;2.03;;;0.80;;
17504;SDS011;8870;50.950;11.762;2024-03-23T18:31:04;1.77;;;0.80;;
17504;SDS011;8870;50.950;11.762;2024-03-23T18:36:34;1.15;;;0.80;;
17504;SDS011;8870;50.950;11.762;2024-03-23T18:41:50;1.90;;;0.75;;
17504;SDS011;8870;50.950;11.762;2024-03-23T18:47:18;1.48;;;0.75;;
17504;SDS011;8870;50.950;11.762;2024-03-23T18:52:35;1.45;;;0.68;;
17504;SDS011;8870;50.950;11.762;2024-03-23T18:58:03;2.70;;;0.80;;
17504;SDS011;8870;50.950;11.762;2024-03-23T19:03:18;2.38;;;0.90;;
17504;SDS011;8870;50.950;11.762;2024-03-23T19:08:48;1.35;;;0.85;;
17504;SDS011;8870;50.950;11.762;2024-03-23T19:14:03;2.08;;;1.30;;
17504;SDS011;8870;50.950;11.762;2024-03-23T19:19:31;1.70;;;1.00;;
17504;SDS011;8870;50.950;11.762;2024-03-23T19:24:48;1.38;;;0.85;;
17504;SDS011;8870;50.950;11.762;2024-03-23T19:30:17;1.13;;;0.70;;
17504;SDS011;8870;50.950;11.762;2024-03-23T19:35:32;2.13;;;0.98;;
17504;SDS011;8870;50.950;11.762;2024-03-23T19:41:02;2.60;;;1.02;;
17504;SDS011;8870;50.950;11.762;2024-03-23T19:46:17;1.83;;;0.90;;
17504;SDS011;8870;50.950;11.762;2024-03-23T19:51:45;7.13;;;3.03;;
17504;SDS011;8870;50.950;11.762;2024-03-23T19:57:01;1.88;;;1.00;;
17504;SDS011;8870;50.950;11.762;2024-03-23T20:02:30;1.30;;;1.00;;
17504;SDS011;8870;50.950;11.762;2024-03-23T20:07:44;1.90;;;1.00;;
17504;SDS011;8870;50.950;11.762;2024-03-23T20:13:14;1.77;;;1.10;;
17504;SDS011;8870;50.950;11.762;2024-03-23T20:18:29;1.67;;;0.95;;
17504;SDS011;8870;50.950;11.762;2024-03-23T20:23:58;2.05;;;1.08;;
17504;SDS011;8870;50.950;11.762;2024-03-23T20:29:15;2.30;;;1.10;;
17504;SDS011;8870;50.950;11.762;2024-03-23T20:34:44;2.20;;;1.20;;
17504;SDS011;8870;50.950;11.762;2024-03-23T20:39:59;2.85;;;1.85;;
17504;SDS011;8870;50.950;11.762;2024-03-23T20:45:29;2.55;;;1.48;;
17504;SDS011;8870;50.950;11.762;2024-03-23T20:50:44;3.97;;;2.30;;
17504;SDS011;8870;50.950;11.762;2024-03-23T20:56:12;3.20;;;1.80;;
17504;SDS011;8870;50.950;11.762;2024-03-23T21:01:28;2.10;;;1.30;;
17504;SDS011;8870;50.950;11.762;2024-03-23T21:06:57;3.63;;;1.65;;
17504;SDS011;8870;50.950;11.762;2024-03-23T21:12:12;2.88;;;1.20;;
17504;SDS011;8870;50.950;11.762;2024-03-23T21:17:42;2.28;;;1.27;;
17504;SDS011;8870;50.950;11.762;2024-03-23T21:22:57;2.63;;;1.30;;
17504;SDS011;8870;50.950;11.762;2024-03-23T21:28:25;2.50;;;1.27;;
17504;SDS011;8870;50.950;11.762;2024-03-23T21:33:49;1.70;;;1.42;;
17504;SDS011;8870;50.950;11.762;2024-03-23T21:39:18;1.92;;;1.48;;
17504;SDS011;8870;50.950;11.762;2024-03-23T21:44:32;2.47;;;1.50;;
17504;SDS011;8870;50.950;11.762;2024-03-23T21:50:03;2.22;;;1.20;;
17504;SDS011;8870;50.950;11.762;2024-03-23T21:55:18;2.45;;;1.30;;
17504;SDS011;8870;50.950;11.762;2024-03-23T22:00:46;2.38;;;1.38;;
17504;SDS011;8870;50.950;11.762;2024-03-23T22:06:03;2.08;;;1.60;;
17504;SDS011;8870;50.950;11.762;2024-03-23T22:11:32;2.92;;;1.00;;
17504;SDS011;8870;50.950;11.762;2024-03-23T22:16:47;1.65;;;1.10;;
17504;SDS011;8870;50.950;11.762;2024-03-23T22:22:17;1.02;;;0.88;;
17504;SDS011;8870;50.950;11.762;2024-03-23T22:27:32;3.63;;;0.90;;
17504;SDS011;8870;50.950;11.762;2024-03-23T22:33:00;1.92;;;0.90;;
17504;SDS011;8870;50.950;11.762;2024-03-23T22:43:45;4.60;;;1.00;;
17504;SDS011;8870;50.950;11.762;2024-03-23T22:48:59;1.02;;;0.90;;
17504;SDS011;8870;50.950;11.762;2024-03-23T22:54:29;2.60;;;0.90;;
17504;SDS011;8870;50.950;11.762;2024-03-23T22:59:44;1.10;;;0.70;;
17504;SDS011;8870;50.950;11.762;2024-03-23T23:05:12;2.33;;;0.80;;
17504;SDS011;8870;50.950;11.762;2024-03-23T23:10:30;1.98;;;0.70;;
17504;SDS011;8870;50.950;11.762;2024-03-23T23:15:58;1.63;;;0.80;;
17504;SDS011;8870;50.950;11.762;2024-03-23T23:21:12;1.00;;;0.70;;
17504;SDS011;8870;50.950;11.762;2024-03-23T23:26:43;0.63;;;0.60;;
17504;SDS011;8870;50.950;11.762;2024-03-23T23:32:04;1.48;;;0.80;;
17504;SDS011;8870;50.950;11.762;2024-03-23T23:37:33;1.00;;;0.80;;
17504;SDS011;8870;50.950;11.762;2024-03-23T23:42:51;1.52;;;0.70;;
17504;SDS011;8870;50.950;11.762;2024-03-23T23:48:19;1.27;;;0.80;;
17504;SDS011;8870;50.950;11.762;2024-03-23T23:53:34;1.05;;;0.60;;
17504;SDS011;8870;50.950;11.762;2024-03-23T23:59:04;1.27;;;0.70;;
